Archival Weather

NSFA McMurdo Sound

NSFA McMurdo Sound, Antarctica (NZCM)

Report from: Tuesday, September 19, 2023 2:49 AM UTC
Current time: Tuesday, July 16, 2024 9:04 AM UTC

Current weather – Weather history – Daily summaries
Weather forecast

Temperature-13.5°C (7.7°F)
Wind chill-23.4°C (-10.1°F)
Dew point-17.8°C (-0.0°F)
Winds 14 kts (7.2 m/s, 16.1 mph) East-Northeast (60°)
Wind gusts 21 kts (10.8 m/s, 24.2 mph)
Peak wind 28 kts (14.4 m/s, 32.2 mph) North-Northeast (20°) at 02:12
Visibility3.7 mi. (6 km)
Clouds Scattered clouds 1,800 ft. (549 m)
Ceiling: Broken clouds 2,800 ft. (853 m)
Overcast 3,400 ft. (1,036 m)
Altimeter28.95 in.Hg (980 mB)
Precip. events Snow ended 2:23 AM
Snow began 2:26 AM
Snow ended 2:35 AM
Snow began 2:40 AM
Snow ended 2:49 AM
Relative humidity70 %
Density altitude-5,848 ft. (-1,783 m)
Sea-level pressure108.1 kPa (1081 mB, 31.92 in.Hg)
Remarks Fully automated report
Special weather observation
Automated weather observing station with precipitation discriminator
Flight conditions Marginal Visual Meteorological Conditions
Raw dataSPECI NZCM 190249Z AUTO 06014G21KT 6000 SCT018 BKN028 OVC034 M13/M18 A2895 RMK AO2 PK WND 02028/0212 SNE0223B0226E0235B0240E0249 SLP810 T11351178
An error has occurred. This application may no longer respond until reloaded. Reload 🗙